sensor_id;sensor_type;location;lat;lon;timestamp;P1;durP1;ratioP1;P2;durP2;ratioP2
5867;SDS011;2960;49.142;7.768;2024-02-26T00:00:28;8.90;;;2.97;;
5867;SDS011;2960;49.142;7.768;2024-02-26T00:02:56;8.90;;;3.10;;
5867;SDS011;2960;49.142;7.768;2024-02-26T00:05:23;8.37;;;2.90;;
5867;SDS011;2960;49.142;7.768;2024-02-26T00:07:53;9.03;;;3.33;;
5867;SDS011;2960;49.142;7.768;2024-02-26T00:10:23;8.67;;;3.20;;
5867;SDS011;2960;49.142;7.768;2024-02-26T00:12:50;8.70;;;3.10;;
5867;SDS011;2960;49.142;7.768;2024-02-26T00:15:17;8.87;;;3.10;;
5867;SDS011;2960;49.142;7.768;2024-02-26T00:17:45;8.67;;;3.20;;
5867;SDS011;2960;49.142;7.768;2024-02-26T00:20:13;8.40;;;2.90;;
5867;SDS011;2960;49.142;7.768;2024-02-26T00:22:40;9.00;;;3.10;;
5867;SDS011;2960;49.142;7.768;2024-02-26T00:25:07;12.40;;;3.27;;
5867;SDS011;2960;49.142;7.768;2024-02-26T00:27:34;9.50;;;3.30;;
5867;SDS011;2960;49.142;7.768;2024-02-26T00:30:05;9.00;;;3.30;;
5867;SDS011;2960;49.142;7.768;2024-02-26T00:32:34;8.80;;;3.10;;
5867;SDS011;2960;49.142;7.768;2024-02-26T00:35:01;8.63;;;3.13;;
5867;SDS011;2960;49.142;7.768;2024-02-26T00:37:32;8.70;;;3.03;;
5867;SDS011;2960;49.142;7.768;2024-02-26T00:39:59;9.20;;;3.17;;
5867;SDS011;2960;49.142;7.768;2024-02-26T00:42:26;8.43;;;3.03;;
5867;SDS011;2960;49.142;7.768;2024-02-26T00:44:53;8.70;;;3.00;;
5867;SDS011;2960;49.142;7.768;2024-02-26T00:47:20;8.37;;;2.90;;
5867;SDS011;2960;49.142;7.768;2024-02-26T00:49:48;8.67;;;2.93;;
5867;SDS011;2960;49.142;7.768;2024-02-26T00:52:15;8.50;;;2.77;;
5867;SDS011;2960;49.142;7.768;2024-02-26T00:54:46;8.80;;;2.60;;
5867;SDS011;2960;49.142;7.768;2024-02-26T00:57:13;8.60;;;2.90;;
5867;SDS011;2960;49.142;7.768;2024-02-26T00:59:40;8.70;;;2.90;;
5867;SDS011;2960;49.142;7.768;2024-02-26T01:02:07;8.50;;;2.70;;
5867;SDS011;2960;49.142;7.768;2024-02-26T01:04:34;8.40;;;2.80;;
5867;SDS011;2960;49.142;7.768;2024-02-26T01:07:01;8.37;;;2.83;;
5867;SDS011;2960;49.142;7.768;2024-02-26T01:09:29;9.23;;;2.70;;
5867;SDS011;2960;49.142;7.768;2024-02-26T01:11:57;8.57;;;2.80;;
5867;SDS011;2960;49.142;7.768;2024-02-26T01:14:24;8.80;;;2.70;;
5867;SDS011;2960;49.142;7.768;2024-02-26T01:16:51;9.10;;;3.00;;
5867;SDS011;2960;49.142;7.768;2024-02-26T01:19:19;8.40;;;2.63;;
5867;SDS011;2960;49.142;7.768;2024-02-26T01:21:46;8.40;;;2.87;;
5867;SDS011;2960;49.142;7.768;2024-02-26T01:24:13;9.53;;;3.10;;
5867;SDS011;2960;49.142;7.768;2024-02-26T01:26:40;8.63;;;2.90;;
5867;SDS011;2960;49.142;7.768;2024-02-26T01:29:09;9.20;;;2.90;;
5867;SDS011;2960;49.142;7.768;2024-02-26T01:31:36;8.90;;;3.03;;
5867;SDS011;2960;49.142;7.768;2024-02-26T01:34:03;8.30;;;2.70;;
5867;SDS011;2960;49.142;7.768;2024-02-26T01:36:30;8.67;;;2.90;;
5867;SDS011;2960;49.142;7.768;2024-02-26T01:38:57;8.70;;;3.10;;
5867;SDS011;2960;49.142;7.768;2024-02-26T01:41:24;8.90;;;3.00;;
5867;SDS011;2960;49.142;7.768;2024-02-26T01:43:51;8.53;;;2.90;;
5867;SDS011;2960;49.142;7.768;2024-02-26T01:46:20;8.63;;;3.00;;
5867;SDS011;2960;49.142;7.768;2024-02-26T01:48:48;9.00;;;2.70;;
5867;SDS011;2960;49.142;7.768;2024-02-26T01:51:16;8.27;;;2.70;;
5867;SDS011;2960;49.142;7.768;2024-02-26T01:53:43;8.20;;;2.53;;
5867;SDS011;2960;49.142;7.768;2024-02-26T01:56:11;8.77;;;2.80;;
5867;SDS011;2960;49.142;7.768;2024-02-26T01:58:39;8.00;;;2.40;;
5867;SDS011;2960;49.142;7.768;2024-02-26T02:01:06;8.33;;;2.70;;
5867;SDS011;2960;49.142;7.768;2024-02-26T02:03:36;8.30;;;2.70;;
5867;SDS011;2960;49.142;7.768;2024-02-26T02:06:03;8.37;;;2.70;;
5867;SDS011;2960;49.142;7.768;2024-02-26T02:08:31;8.30;;;2.83;;
5867;SDS011;2960;49.142;7.768;2024-02-26T02:11:00;8.50;;;2.63;;
5867;SDS011;2960;49.142;7.768;2024-02-26T02:13:27;8.17;;;2.40;;
5867;SDS011;2960;49.142;7.768;2024-02-26T02:15:54;8.13;;;2.50;;
5867;SDS011;2960;49.142;7.768;2024-02-26T02:18:22;8.27;;;2.60;;
5867;SDS011;2960;49.142;7.768;2024-02-26T02:20:50;8.30;;;2.83;;
5867;SDS011;2960;49.142;7.768;2024-02-26T02:23:17;8.50;;;2.77;;
5867;SDS011;2960;49.142;7.768;2024-02-26T02:25:44;8.23;;;2.70;;
5867;SDS011;2960;49.142;7.768;2024-02-26T02:28:11;8.47;;;2.80;;
5867;SDS011;2960;49.142;7.768;2024-02-26T02:30:39;8.23;;;2.60;;
5867;SDS011;2960;49.142;7.768;2024-02-26T02:33:07;8.43;;;2.70;;
5867;SDS011;2960;49.142;7.768;2024-02-26T02:35:34;8.47;;;2.70;;
5867;SDS011;2960;49.142;7.768;2024-02-26T02:38:03;8.30;;;2.70;;
5867;SDS011;2960;49.142;7.768;2024-02-26T02:40:30;8.30;;;2.90;;
5867;SDS011;2960;49.142;7.768;2024-02-26T02:42:57;8.10;;;2.47;;
5867;SDS011;2960;49.142;7.768;2024-02-26T02:45:25;8.13;;;2.50;;
5867;SDS011;2960;49.142;7.768;2024-02-26T02:47:52;8.27;;;2.73;;
5867;SDS011;2960;49.142;7.768;2024-02-26T02:50:19;8.23;;;2.50;;
5867;SDS011;2960;49.142;7.768;2024-02-26T02:52:46;8.37;;;2.67;;
5867;SDS011;2960;49.142;7.768;2024-02-26T02:55:16;8.40;;;2.60;;
5867;SDS011;2960;49.142;7.768;2024-02-26T02:57:44;8.03;;;2.40;;
5867;SDS011;2960;49.142;7.768;2024-02-26T03:00:12;8.17;;;2.43;;
5867;SDS011;2960;49.142;7.768;2024-02-26T03:02:40;7.97;;;2.40;;
5867;SDS011;2960;49.142;7.768;2024-02-26T03:05:08;8.17;;;2.40;;
5867;SDS011;2960;49.142;7.768;2024-02-26T03:07:35;8.17;;;2.50;;
5867;SDS011;2960;49.142;7.768;2024-02-26T03:10:02;8.20;;;2.50;;
5867;SDS011;2960;49.142;7.768;2024-02-26T03:12:31;8.80;;;2.60;;
5867;SDS011;2960;49.142;7.768;2024-02-26T03:15:00;8.77;;;2.57;;
5867;SDS011;2960;49.142;7.768;2024-02-26T03:17:28;8.00;;;2.40;;
5867;SDS011;2960;49.142;7.768;2024-02-26T03:19:55;8.60;;;2.70;;
5867;SDS011;2960;49.142;7.768;2024-02-26T03:22:22;8.57;;;2.70;;
5867;SDS011;2960;49.142;7.768;2024-02-26T03:24:49;8.30;;;2.70;;
5867;SDS011;2960;49.142;7.768;2024-02-26T03:27:16;8.43;;;2.60;;
5867;SDS011;2960;49.142;7.768;2024-02-26T03:29:48;8.30;;;2.40;;
5867;SDS011;2960;49.142;7.768;2024-02-26T03:32:15;8.07;;;2.40;;
5867;SDS011;2960;49.142;7.768;2024-02-26T03:34:42;9.60;;;2.50;;
5867;SDS011;2960;49.142;7.768;2024-02-26T03:37:09;8.37;;;2.70;;
5867;SDS011;2960;49.142;7.768;2024-02-26T03:39:36;8.07;;;2.33;;
5867;SDS011;2960;49.142;7.768;2024-02-26T03:42:04;8.10;;;2.50;;
5867;SDS011;2960;49.142;7.768;2024-02-26T03:44:31;8.37;;;2.70;;
5867;SDS011;2960;49.142;7.768;2024-02-26T03:46:59;8.40;;;2.60;;
5867;SDS011;2960;49.142;7.768;2024-02-26T03:49:27;8.27;;;2.40;;
5867;SDS011;2960;49.142;7.768;2024-02-26T03:51:54;8.00;;;2.40;;
5867;SDS011;2960;49.142;7.768;2024-02-26T03:54:21;8.13;;;2.50;;
5867;SDS011;2960;49.142;7.768;2024-02-26T03:56:48;8.50;;;2.50;;
5867;SDS011;2960;49.142;7.768;2024-02-26T03:59:15;8.03;;;2.33;;
5867;SDS011;2960;49.142;7.768;2024-02-26T04:01:44;8.50;;;2.40;;
5867;SDS011;2960;49.142;7.768;2024-02-26T04:04:14;8.30;;;2.40;;
5867;SDS011;2960;49.142;7.768;2024-02-26T04:06:43;8.33;;;2.33;;
5867;SDS011;2960;49.142;7.768;2024-02-26T04:09:11;8.13;;;2.40;;
5867;SDS011;2960;49.142;7.768;2024-02-26T04:11:40;8.50;;;2.50;;
5867;SDS011;2960;49.142;7.768;2024-02-26T04:14:08;8.60;;;2.67;;
5867;SDS011;2960;49.142;7.768;2024-02-26T04:16:37;8.03;;;2.40;;
5867;SDS011;2960;49.142;7.768;2024-02-26T04:19:04;8.70;;;2.43;;
5867;SDS011;2960;49.142;7.768;2024-02-26T04:21:33;8.20;;;2.40;;
5867;SDS011;2960;49.142;7.768;2024-02-26T04:24:00;8.50;;;2.40;;
5867;SDS011;2960;49.142;7.768;2024-02-26T04:26:27;8.10;;;2.43;;
5867;SDS011;2960;49.142;7.768;2024-02-26T04:28:56;7.97;;;2.37;;
5867;SDS011;2960;49.142;7.768;2024-02-26T04:31:23;8.17;;;2.30;;
5867;SDS011;2960;49.142;7.768;2024-02-26T04:33:51;8.17;;;2.30;;
5867;SDS011;2960;49.142;7.768;2024-02-26T04:36:18;8.57;;;2.40;;
5867;SDS011;2960;49.142;7.768;2024-02-26T04:38:47;8.10;;;2.30;;
5867;SDS011;2960;49.142;7.768;2024-02-26T04:41:14;8.30;;;2.40;;
5867;SDS011;2960;49.142;7.768;2024-02-26T04:43:41;8.07;;;2.13;;
5867;SDS011;2960;49.142;7.768;2024-02-26T04:46:09;8.00;;;2.27;;
5867;SDS011;2960;49.142;7.768;2024-02-26T04:48:36;8.07;;;2.30;;
5867;SDS011;2960;49.142;7.768;2024-02-26T04:51:03;8.20;;;2.30;;
5867;SDS011;2960;49.142;7.768;2024-02-26T04:53:31;8.87;;;2.40;;
5867;SDS011;2960;49.142;7.768;2024-02-26T04:55:59;8.07;;;2.40;;
5867;SDS011;2960;49.142;7.768;2024-02-26T04:58:26;8.07;;;2.30;;
5867;SDS011;2960;49.142;7.768;2024-02-26T05:00:53;8.07;;;2.20;;
5867;SDS011;2960;49.142;7.768;2024-02-26T05:03:21;8.10;;;2.20;;
5867;SDS011;2960;49.142;7.768;2024-02-26T05:05:48;8.20;;;2.47;;
5867;SDS011;2960;49.142;7.768;2024-02-26T05:08:16;8.23;;;2.40;;
5867;SDS011;2960;49.142;7.768;2024-02-26T05:10:44;8.40;;;2.60;;
5867;SDS011;2960;49.142;7.768;2024-02-26T05:13:13;8.20;;;2.37;;
5867;SDS011;2960;49.142;7.768;2024-02-26T05:15:43;8.20;;;2.50;;
5867;SDS011;2960;49.142;7.768;2024-02-26T05:18:12;8.40;;;2.40;;
5867;SDS011;2960;49.142;7.768;2024-02-26T05:20:41;8.13;;;2.30;;
5867;SDS011;2960;49.142;7.768;2024-02-26T05:23:09;8.30;;;2.30;;
5867;SDS011;2960;49.142;7.768;2024-02-26T05:25:36;8.93;;;2.60;;
5867;SDS011;2960;49.142;7.768;2024-02-26T05:28:03;8.23;;;2.50;;
5867;SDS011;2960;49.142;7.768;2024-02-26T05:30:32;8.40;;;2.50;;
5867;SDS011;2960;49.142;7.768;2024-02-26T05:32:59;7.97;;;2.00;;
5867;SDS011;2960;49.142;7.768;2024-02-26T05:35:26;8.27;;;2.40;;
5867;SDS011;2960;49.142;7.768;2024-02-26T05:37:53;8.60;;;2.60;;
5867;SDS011;2960;49.142;7.768;2024-02-26T05:40:20;8.40;;;2.60;;
5867;SDS011;2960;49.142;7.768;2024-02-26T05:42:47;8.30;;;2.40;;
5867;SDS011;2960;49.142;7.768;2024-02-26T05:45:15;8.33;;;2.50;;
5867;SDS011;2960;49.142;7.768;2024-02-26T05:47:44;8.40;;;2.70;;
5867;SDS011;2960;49.142;7.768;2024-02-26T05:50:11;8.27;;;2.60;;
5867;SDS011;2960;49.142;7.768;2024-02-26T05:52:39;8.47;;;2.40;;
5867;SDS011;2960;49.142;7.768;2024-02-26T05:55:08;8.50;;;2.70;;
5867;SDS011;2960;49.142;7.768;2024-02-26T05:57:35;8.70;;;2.40;;
5867;SDS011;2960;49.142;7.768;2024-02-26T06:00:03;8.37;;;2.47;;
5867;SDS011;2960;49.142;7.768;2024-02-26T06:02:32;8.23;;;2.50;;
5867;SDS011;2960;49.142;7.768;2024-02-26T06:05:00;8.07;;;2.40;;
5867;SDS011;2960;49.142;7.768;2024-02-26T06:07:28;8.17;;;2.50;;
5867;SDS011;2960;49.142;7.768;2024-02-26T06:09:55;8.10;;;2.33;;
5867;SDS011;2960;49.142;7.768;2024-02-26T06:12:22;8.17;;;2.30;;
5867;SDS011;2960;49.142;7.768;2024-02-26T06:14:49;7.97;;;2.27;;
5867;SDS011;2960;49.142;7.768;2024-02-26T06:17:16;8.10;;;2.47;;
5867;SDS011;2960;49.142;7.768;2024-02-26T06:19:43;8.10;;;2.40;;
5867;SDS011;2960;49.142;7.768;2024-02-26T06:22:12;8.30;;;2.60;;
5867;SDS011;2960;49.142;7.768;2024-02-26T06:24:39;8.10;;;2.20;;
5867;SDS011;2960;49.142;7.768;2024-02-26T06:27:06;8.20;;;2.30;;
5867;SDS011;2960;49.142;7.768;2024-02-26T06:29:33;8.13;;;2.40;;
5867;SDS011;2960;49.142;7.768;2024-02-26T06:32:01;8.07;;;2.40;;
5867;SDS011;2960;49.142;7.768;2024-02-26T06:34:28;8.00;;;2.30;;
5867;SDS011;2960;49.142;7.768;2024-02-26T06:36:55;8.10;;;2.27;;
5867;SDS011;2960;49.142;7.768;2024-02-26T06:39:23;8.30;;;2.43;;
5867;SDS011;2960;49.142;7.768;2024-02-26T06:41:51;7.97;;;2.33;;
5867;SDS011;2960;49.142;7.768;2024-02-26T06:44:24;8.00;;;2.37;;
5867;SDS011;2960;49.142;7.768;2024-02-26T06:46:56;8.40;;;2.50;;
5867;SDS011;2960;49.142;7.768;2024-02-26T06:49:24;8.20;;;2.40;;
5867;SDS011;2960;49.142;7.768;2024-02-26T06:51:51;8.27;;;2.70;;
5867;SDS011;2960;49.142;7.768;2024-02-26T06:54:19;8.03;;;2.40;;
5867;SDS011;2960;49.142;7.768;2024-02-26T06:56:47;8.20;;;2.50;;
5867;SDS011;2960;49.142;7.768;2024-02-26T06:59:14;8.27;;;2.73;;
5867;SDS011;2960;49.142;7.768;2024-02-26T07:01:42;8.20;;;2.50;;
5867;SDS011;2960;49.142;7.768;2024-02-26T07:04:10;8.27;;;2.70;;
5867;SDS011;2960;49.142;7.768;2024-02-26T07:06:37;8.27;;;2.67;;
5867;SDS011;2960;49.142;7.768;2024-02-26T07:09:04;8.40;;;2.80;;
5867;SDS011;2960;49.142;7.768;2024-02-26T07:11:31;8.17;;;2.60;;
5867;SDS011;2960;49.142;7.768;2024-02-26T07:14:00;8.30;;;2.70;;
5867;SDS011;2960;49.142;7.768;2024-02-26T07:16:27;8.30;;;2.70;;
5867;SDS011;2960;49.142;7.768;2024-02-26T07:18:54;8.40;;;2.80;;
5867;SDS011;2960;49.142;7.768;2024-02-26T07:21:21;8.10;;;2.53;;
5867;SDS011;2960;49.142;7.768;2024-02-26T07:23:48;8.10;;;2.60;;
5867;SDS011;2960;49.142;7.768;2024-02-26T07:26:15;8.10;;;2.50;;
5867;SDS011;2960;49.142;7.768;2024-02-26T07:28:44;8.07;;;2.60;;
5867;SDS011;2960;49.142;7.768;2024-02-26T07:31:13;8.23;;;2.70;;
5867;SDS011;2960;49.142;7.768;2024-02-26T07:33:40;10.23;;;2.60;;
5867;SDS011;2960;49.142;7.768;2024-02-26T07:36:07;9.20;;;2.80;;
5867;SDS011;2960;49.142;7.768;2024-02-26T07:38:34;8.77;;;2.80;;
5867;SDS011;2960;49.142;7.768;2024-02-26T07:41:01;8.17;;;2.57;;
5867;SDS011;2960;49.142;7.768;2024-02-26T07:43:28;8.23;;;2.70;;
5867;SDS011;2960;49.142;7.768;2024-02-26T07:45:55;8.60;;;2.57;;
5867;SDS011;2960;49.142;7.768;2024-02-26T07:48:25;8.13;;;2.60;;
5867;SDS011;2960;49.142;7.768;2024-02-26T07:50:52;8.10;;;2.50;;
5867;SDS011;2960;49.142;7.768;2024-02-26T07:53:19;8.37;;;2.70;;
5867;SDS011;2960;49.142;7.768;2024-02-26T07:55:47;8.20;;;2.70;;
5867;SDS011;2960;49.142;7.768;2024-02-26T07:58:14;8.30;;;2.70;;
5867;SDS011;2960;49.142;7.768;2024-02-26T08:00:41;8.07;;;2.50;;
5867;SDS011;2960;49.142;7.768;2024-02-26T08:03:09;8.70;;;2.40;;
5867;SDS011;2960;49.142;7.768;2024-02-26T08:05:37;8.47;;;2.80;;
5867;SDS011;2960;49.142;7.768;2024-02-26T08:08:05;8.30;;;2.60;;
5867;SDS011;2960;49.142;7.768;2024-02-26T08:10:33;8.80;;;2.70;;
5867;SDS011;2960;49.142;7.768;2024-02-26T08:13:00;8.20;;;2.63;;
5867;SDS011;2960;49.142;7.768;2024-02-26T08:15:31;8.60;;;2.90;;
5867;SDS011;2960;49.142;7.768;2024-02-26T08:17:59;8.87;;;2.87;;
5867;SDS011;2960;49.142;7.768;2024-02-26T08:20:27;8.27;;;2.70;;
5867;SDS011;2960;49.142;7.768;2024-02-26T08:22:56;9.00;;;2.80;;
5867;SDS011;2960;49.142;7.768;2024-02-26T08:25:25;9.00;;;2.70;;
5867;SDS011;2960;49.142;7.768;2024-02-26T08:27:52;8.20;;;2.70;;
5867;SDS011;2960;49.142;7.768;2024-02-26T08:30:20;8.40;;;2.90;;
5867;SDS011;2960;49.142;7.768;2024-02-26T08:32:47;8.47;;;2.80;;
5867;SDS011;2960;49.142;7.768;2024-02-26T08:35:13;8.40;;;2.80;;
5867;SDS011;2960;49.142;7.768;2024-02-26T08:37:43;8.70;;;2.93;;
5867;SDS011;2960;49.142;7.768;2024-02-26T08:40:12;8.63;;;3.13;;
5867;SDS011;2960;49.142;7.768;2024-02-26T08:42:40;8.57;;;2.90;;
5867;SDS011;2960;49.142;7.768;2024-02-26T08:45:07;8.50;;;2.80;;
5867;SDS011;2960;49.142;7.768;2024-02-26T08:47:36;8.67;;;2.90;;
5867;SDS011;2960;49.142;7.768;2024-02-26T08:50:03;8.50;;;2.90;;
5867;SDS011;2960;49.142;7.768;2024-02-26T08:52:34;8.57;;;2.80;;
5867;SDS011;2960;49.142;7.768;2024-02-26T08:55:02;8.37;;;2.73;;
5867;SDS011;2960;49.142;7.768;2024-02-26T08:57:32;8.70;;;2.80;;
5867;SDS011;2960;49.142;7.768;2024-02-26T08:59:59;8.90;;;2.93;;
5867;SDS011;2960;49.142;7.768;2024-02-26T09:02:26;8.90;;;3.00;;
5867;SDS011;2960;49.142;7.768;2024-02-26T09:04:53;9.03;;;3.00;;
5867;SDS011;2960;49.142;7.768;2024-02-26T09:07:20;9.20;;;3.10;;
5867;SDS011;2960;49.142;7.768;2024-02-26T09:09:48;8.77;;;2.93;;
5867;SDS011;2960;49.142;7.768;2024-02-26T09:12:15;8.73;;;3.10;;
5867;SDS011;2960;49.142;7.768;2024-02-26T09:14:43;8.57;;;2.90;;
5867;SDS011;2960;49.142;7.768;2024-02-26T09:17:10;8.70;;;2.93;;
5867;SDS011;2960;49.142;7.768;2024-02-26T09:19:38;9.33;;;3.00;;
5867;SDS011;2960;49.142;7.768;2024-02-26T09:22:07;8.73;;;3.07;;
5867;SDS011;2960;49.142;7.768;2024-02-26T09:24:34;8.70;;;3.03;;
5867;SDS011;2960;49.142;7.768;2024-02-26T09:27:01;8.67;;;3.00;;
5867;SDS011;2960;49.142;7.768;2024-02-26T09:29:29;9.37;;;3.10;;
5867;SDS011;2960;49.142;7.768;2024-02-26T09:31:57;8.80;;;3.13;;
5867;SDS011;2960;49.142;7.768;2024-02-26T09:34:24;8.80;;;2.93;;
5867;SDS011;2960;49.142;7.768;2024-02-26T09:36:51;8.90;;;3.07;;
5867;SDS011;2960;49.142;7.768;2024-02-26T09:39:21;8.63;;;2.97;;
5867;SDS011;2960;49.142;7.768;2024-02-26T09:41:48;8.60;;;3.00;;
5867;SDS011;2960;49.142;7.768;2024-02-26T09:44:17;8.57;;;2.80;;
5867;SDS011;2960;49.142;7.768;2024-02-26T09:46:47;8.60;;;2.80;;
5867;SDS011;2960;49.142;7.768;2024-02-26T09:49:16;9.10;;;2.90;;
5867;SDS011;2960;49.142;7.768;2024-02-26T09:51:45;9.67;;;2.93;;
5867;SDS011;2960;49.142;7.768;2024-02-26T09:54:15;8.63;;;2.97;;
5867;SDS011;2960;49.142;7.768;2024-02-26T09:56:43;8.77;;;3.20;;
5867;SDS011;2960;49.142;7.768;2024-02-26T09:59:15;8.73;;;3.10;;
5867;SDS011;2960;49.142;7.768;2024-02-26T10:01:44;9.23;;;3.43;;
5867;SDS011;2960;49.142;7.768;2024-02-26T10:04:12;8.87;;;3.10;;
5867;SDS011;2960;49.142;7.768;2024-02-26T10:06:41;8.87;;;3.03;;
5867;SDS011;2960;49.142;7.768;2024-02-26T10:09:10;8.90;;;3.20;;
5867;SDS011;2960;49.142;7.768;2024-02-26T10:11:38;9.50;;;3.43;;
5867;SDS011;2960;49.142;7.768;2024-02-26T10:14:08;9.00;;;3.37;;
5867;SDS011;2960;49.142;7.768;2024-02-26T10:16:36;9.30;;;3.17;;
5867;SDS011;2960;49.142;7.768;2024-02-26T10:19:04;9.33;;;3.53;;
5867;SDS011;2960;49.142;7.768;2024-02-26T10:21:31;9.40;;;3.70;;
5867;SDS011;2960;49.142;7.768;2024-02-26T10:24:00;9.37;;;3.50;;
5867;SDS011;2960;49.142;7.768;2024-02-26T10:26:27;9.33;;;3.30;;
5867;SDS011;2960;49.142;7.768;2024-02-26T10:28:54;9.53;;;3.83;;
5867;SDS011;2960;49.142;7.768;2024-02-26T10:31:27;9.53;;;3.57;;
5867;SDS011;2960;49.142;7.768;2024-02-26T10:33:55;9.53;;;3.50;;
5867;SDS011;2960;49.142;7.768;2024-02-26T10:36:24;9.50;;;3.50;;
5867;SDS011;2960;49.142;7.768;2024-02-26T10:38:54;9.47;;;3.50;;
5867;SDS011;2960;49.142;7.768;2024-02-26T10:41:23;9.90;;;3.70;;
5867;SDS011;2960;49.142;7.768;2024-02-26T10:43:50;9.50;;;3.60;;
5867;SDS011;2960;49.142;7.768;2024-02-26T10:46:17;9.37;;;3.50;;
5867;SDS011;2960;49.142;7.768;2024-02-26T10:48:49;9.70;;;3.80;;
5867;SDS011;2960;49.142;7.768;2024-02-26T10:51:17;9.60;;;3.80;;
5867;SDS011;2960;49.142;7.768;2024-02-26T10:53:51;9.93;;;3.90;;
5867;SDS011;2960;49.142;7.768;2024-02-26T10:56:26;9.80;;;3.50;;
5867;SDS011;2960;49.142;7.768;2024-02-26T10:58:55;9.77;;;3.53;;
5867;SDS011;2960;49.142;7.768;2024-02-26T11:01:22;10.30;;;3.87;;
5867;SDS011;2960;49.142;7.768;2024-02-26T11:03:52;10.20;;;3.70;;
5867;SDS011;2960;49.142;7.768;2024-02-26T11:06:19;10.83;;;4.03;;
5867;SDS011;2960;49.142;7.768;2024-02-26T11:08:48;10.53;;;3.70;;
5867;SDS011;2960;49.142;7.768;2024-02-26T11:11:16;10.17;;;3.53;;
5867;SDS011;2960;49.142;7.768;2024-02-26T11:13:46;10.17;;;3.80;;
5867;SDS011;2960;49.142;7.768;2024-02-26T11:16:16;10.23;;;3.80;;
5867;SDS011;2960;49.142;7.768;2024-02-26T11:18:46;9.97;;;3.30;;
5867;SDS011;2960;49.142;7.768;2024-02-26T11:21:15;10.17;;;3.50;;
5867;SDS011;2960;49.142;7.768;2024-02-26T11:23:43;9.97;;;3.50;;
5867;SDS011;2960;49.142;7.768;2024-02-26T11:26:11;10.30;;;3.87;;
5867;SDS011;2960;49.142;7.768;2024-02-26T11:28:40;9.87;;;3.50;;
5867;SDS011;2960;49.142;7.768;2024-02-26T11:31:09;9.93;;;3.70;;
5867;SDS011;2960;49.142;7.768;2024-02-26T11:33:37;9.87;;;3.67;;
5867;SDS011;2960;49.142;7.768;2024-02-26T11:36:07;10.13;;;3.90;;
5867;SDS011;2960;49.142;7.768;2024-02-26T11:38:36;10.10;;;4.00;;
5867;SDS011;2960;49.142;7.768;2024-02-26T11:41:04;9.87;;;3.63;;
5867;SDS011;2960;49.142;7.768;2024-02-26T11:43:50;9.93;;;3.57;;
5867;SDS011;2960;49.142;7.768;2024-02-26T11:46:25;9.63;;;3.40;;
5867;SDS011;2960;49.142;7.768;2024-02-26T11:48:55;9.97;;;3.60;;
5867;SDS011;2960;49.142;7.768;2024-02-26T11:51:25;10.20;;;3.67;;
5867;SDS011;2960;49.142;7.768;2024-02-26T11:53:53;9.80;;;3.60;;
5867;SDS011;2960;49.142;7.768;2024-02-26T11:56:23;9.97;;;3.90;;
5867;SDS011;2960;49.142;7.768;2024-02-26T11:58:58;9.97;;;3.80;;
5867;SDS011;2960;49.142;7.768;2024-02-26T12:04:21;9.80;;;3.60;;
5867;SDS011;2960;49.142;7.768;2024-02-26T12:06:52;10.10;;;3.60;;
5867;SDS011;2960;49.142;7.768;2024-02-26T12:09:31;9.80;;;3.83;;
5867;SDS011;2960;49.142;7.768;2024-02-26T12:12:02;9.73;;;3.60;;
5867;SDS011;2960;49.142;7.768;2024-02-26T12:14:32;9.53;;;3.27;;
5867;SDS011;2960;49.142;7.768;2024-02-26T12:17:02;9.57;;;3.40;;
5867;SDS011;2960;49.142;7.768;2024-02-26T12:19:32;9.43;;;3.20;;
5867;SDS011;2960;49.142;7.768;2024-02-26T12:22:00;9.60;;;3.50;;
5867;SDS011;2960;49.142;7.768;2024-02-26T12:24:28;9.60;;;3.53;;
5867;SDS011;2960;49.142;7.768;2024-02-26T12:26:55;9.40;;;3.10;;
5867;SDS011;2960;49.142;7.768;2024-02-26T12:29:23;9.53;;;3.37;;
5867;SDS011;2960;49.142;7.768;2024-02-26T12:31:50;9.43;;;3.30;;
5867;SDS011;2960;49.142;7.768;2024-02-26T12:34:19;9.47;;;3.20;;
5867;SDS011;2960;49.142;7.768;2024-02-26T12:36:46;9.40;;;3.07;;
5867;SDS011;2960;49.142;7.768;2024-02-26T12:39:13;9.50;;;3.30;;
5867;SDS011;2960;49.142;7.768;2024-02-26T12:41:40;9.57;;;3.33;;
5867;SDS011;2960;49.142;7.768;2024-02-26T12:44:14;9.37;;;3.10;;
5867;SDS011;2960;49.142;7.768;2024-02-26T12:46:42;9.50;;;3.40;;
5867;SDS011;2960;49.142;7.768;2024-02-26T12:49:10;10.10;;;3.40;;
5867;SDS011;2960;49.142;7.768;2024-02-26T12:51:44;10.10;;;3.57;;
5867;SDS011;2960;49.142;7.768;2024-02-26T12:54:12;9.77;;;3.73;;
5867;SDS011;2960;49.142;7.768;2024-02-26T12:56:40;9.43;;;3.33;;
5867;SDS011;2960;49.142;7.768;2024-02-26T12:59:08;9.50;;;3.30;;
5867;SDS011;2960;49.142;7.768;2024-02-26T13:01:35;9.43;;;3.27;;
5867;SDS011;2960;49.142;7.768;2024-02-26T13:04:02;9.50;;;3.27;;
5867;SDS011;2960;49.142;7.768;2024-02-26T13:06:31;9.70;;;3.40;;
5867;SDS011;2960;49.142;7.768;2024-02-26T13:09:01;9.57;;;3.40;;
5867;SDS011;2960;49.142;7.768;2024-02-26T13:11:29;9.67;;;3.33;;
5867;SDS011;2960;49.142;7.768;2024-02-26T13:13:57;9.70;;;3.60;;
5867;SDS011;2960;49.142;7.768;2024-02-26T13:16:24;9.87;;;3.87;;
5867;SDS011;2960;49.142;7.768;2024-02-26T13:18:52;9.50;;;3.20;;
5867;SDS011;2960;49.142;7.768;2024-02-26T13:21:20;10.10;;;3.50;;
5867;SDS011;2960;49.142;7.768;2024-02-26T13:23:48;9.73;;;3.50;;
5867;SDS011;2960;49.142;7.768;2024-02-26T13:26:21;10.00;;;3.57;;
5867;SDS011;2960;49.142;7.768;2024-02-26T13:28:59;9.87;;;3.77;;
5867;SDS011;2960;49.142;7.768;2024-02-26T13:31:27;9.77;;;3.47;;
5867;SDS011;2960;49.142;7.768;2024-02-26T13:33:54;9.70;;;3.50;;
5867;SDS011;2960;49.142;7.768;2024-02-26T13:36:21;9.83;;;3.70;;
5867;SDS011;2960;49.142;7.768;2024-02-26T13:38:52;10.10;;;3.90;;
5867;SDS011;2960;49.142;7.768;2024-02-26T13:41:22;9.73;;;3.53;;
5867;SDS011;2960;49.142;7.768;2024-02-26T13:43:49;10.10;;;3.80;;
5867;SDS011;2960;49.142;7.768;2024-02-26T13:46:17;9.83;;;3.70;;
5867;SDS011;2960;49.142;7.768;2024-02-26T13:48:44;9.80;;;3.50;;
5867;SDS011;2960;49.142;7.768;2024-02-26T13:51:11;10.03;;;3.63;;
5867;SDS011;2960;49.142;7.768;2024-02-26T13:53:38;9.80;;;3.47;;
5867;SDS011;2960;49.142;7.768;2024-02-26T13:56:06;10.50;;;3.43;;
5867;SDS011;2960;49.142;7.768;2024-02-26T13:58:34;9.90;;;3.50;;
5867;SDS011;2960;49.142;7.768;2024-02-26T14:01:02;10.10;;;3.60;;
5867;SDS011;2960;49.142;7.768;2024-02-26T14:03:30;10.00;;;3.87;;
5867;SDS011;2960;49.142;7.768;2024-02-26T14:05:58;10.13;;;3.63;;
5867;SDS011;2960;49.142;7.768;2024-02-26T14:08:25;9.80;;;3.50;;
5867;SDS011;2960;49.142;7.768;2024-02-26T14:10:52;9.80;;;3.20;;
5867;SDS011;2960;49.142;7.768;2024-02-26T14:13:20;10.07;;;3.60;;
5867;SDS011;2960;49.142;7.768;2024-02-26T14:15:48;9.87;;;3.70;;
5867;SDS011;2960;49.142;7.768;2024-02-26T14:18:15;9.90;;;3.40;;
5867;SDS011;2960;49.142;7.768;2024-02-26T14:20:42;10.00;;;3.50;;
5867;SDS011;2960;49.142;7.768;2024-02-26T14:23:10;9.80;;;3.37;;
5867;SDS011;2960;49.142;7.768;2024-02-26T14:25:37;9.97;;;3.23;;
5867;SDS011;2960;49.142;7.768;2024-02-26T14:28:05;9.73;;;3.30;;
5867;SDS011;2960;49.142;7.768;2024-02-26T14:30:32;10.20;;;3.77;;
5867;SDS011;2960;49.142;7.768;2024-02-26T14:33:01;9.77;;;3.60;;
5867;SDS011;2960;49.142;7.768;2024-02-26T14:35:28;10.20;;;3.80;;
5867;SDS011;2960;49.142;7.768;2024-02-26T14:37:55;9.77;;;3.40;;
5867;SDS011;2960;49.142;7.768;2024-02-26T14:40:26;10.00;;;3.60;;
5867;SDS011;2960;49.142;7.768;2024-02-26T14:42:53;9.87;;;3.57;;
5867;SDS011;2960;49.142;7.768;2024-02-26T14:45:22;10.07;;;3.50;;
5867;SDS011;2960;49.142;7.768;2024-02-26T14:47:49;9.73;;;3.40;;
5867;SDS011;2960;49.142;7.768;2024-02-26T14:50:18;9.80;;;3.70;;
5867;SDS011;2960;49.142;7.768;2024-02-26T14:52:45;10.00;;;3.90;;
5867;SDS011;2960;49.142;7.768;2024-02-26T14:55:14;10.03;;;3.90;;
5867;SDS011;2960;49.142;7.768;2024-02-26T14:57:41;10.00;;;3.80;;
5867;SDS011;2960;49.142;7.768;2024-02-26T15:00:09;9.90;;;3.60;;
5867;SDS011;2960;49.142;7.768;2024-02-26T15:02:37;10.73;;;4.00;;
5867;SDS011;2960;49.142;7.768;2024-02-26T15:05:04;9.93;;;3.70;;
5867;SDS011;2960;49.142;7.768;2024-02-26T15:07:35;10.50;;;3.77;;
5867;SDS011;2960;49.142;7.768;2024-02-26T15:10:05;9.90;;;3.70;;
5867;SDS011;2960;49.142;7.768;2024-02-26T15:12:33;10.23;;;4.10;;
5867;SDS011;2960;49.142;7.768;2024-02-26T15:15:00;9.73;;;3.70;;
5867;SDS011;2960;49.142;7.768;2024-02-26T15:17:28;10.00;;;3.70;;
5867;SDS011;2960;49.142;7.768;2024-02-26T15:19:57;9.83;;;3.60;;
5867;SDS011;2960;49.142;7.768;2024-02-26T15:22:24;10.30;;;3.87;;